Time;durP1;ratioP1;P1;durP2;ratioP2;P2;SDS_P1;SDS_P2;PMS_P1;PMS_P2;Temp;Humidity;BMP_temperature;BMP_pressure;BME280_temperature;BME280_humidity;BME280_pressure;Samples;Min_cycle;Max_cycle;Signal;HPM_P1;HPM_P2
2021/12/19 00:00:33;;;;;;;8.98;5.97;;;;;;;1.89;94.28;100549.28;4936297;29;20063;-69
2021/12/19 00:10:53;;;;;;;5.25;3.78;;;;;;;1.86;94.57;100535.47;4955525;29;20547;-69
2021/12/19 00:13:18;;;;;;;3.65;2.85;;;;;;;1.93;94.79;100545.16;4955362;28;20031;-69
2021/12/19 00:15:44;;;;;;;6.32;4.90;;;;;;;1.82;94.81;100538.69;4954845;28;20050;-68
2021/12/19 00:18:09;;;;;;;4.00;2.25;;;;;;;1.89;95.21;100539.06;4955088;28;20117;-68
2021/12/19 00:20:35;;;;;;;6.32;3.17;;;;;;;1.73;95.22;100547.69;4955044;28;20393;-68
2021/12/19 00:23:00;;;;;;;5.45;4.95;;;;;;;1.77;95.84;100547.03;4954842;28;20027;-68
2021/12/19 00:25:25;;;;;;;8.10;4.68;;;;;;;1.64;95.93;100526.81;4955187;28;20027;-68
2021/12/19 00:27:51;;;;;;;4.65;4.22;;;;;;;1.59;96.48;100528.28;4954735;28;20042;-68
2021/12/19 00:30:16;;;;;;;3.60;2.58;;;;;;;1.49;96.50;100524.44;4954932;28;20378;-68
2021/12/19 00:32:41;;;;;;;8.63;3.35;;;;;;;1.51;96.95;100509.19;4954791;28;20126;-68
2021/12/19 00:35:07;;;;;;;6.07;3.67;;;;;;;1.48;97.23;100503.94;4954693;28;20051;-68
2021/12/19 00:37:33;;;;;;;2.90;2.75;;;;;;;1.62;97.62;100502.03;4946271;28;20476;-68
2021/12/19 00:39:58;;;;;;;3.90;3.42;;;;;;;1.76;98.14;100491.63;4940228;28;20031;-68
2021/12/19 00:42:35;;;;;;;6.25;4.47;;;;;;;2.03;96.72;100491.97;4935513;29;20030;-68
2021/12/19 00:45:16;;;;;;;6.82;4.25;;;;;;;2.17;96.56;100494.22;4935949;28;20044;-68
2021/12/19 00:47:43;;;;;;;5.80;3.83;;;;;;;2.35;95.24;100489.03;4935235;28;20094;-68
2021/12/19 00:50:09;;;;;;;5.78;2.78;;;;;;;2.33;94.20;100490.69;4935234;29;20028;-68
2021/12/19 00:52:34;;;;;;;6.75;5.40;;;;;;;2.16;93.96;100488.25;4934540;29;20031;-68
2021/12/19 00:55:00;;;;;;;6.07;3.05;;;;;;;2.14;94.41;100500.09;4935260;29;20152;-68
2021/12/19 00:57:25;;;;;;;3.53;3.25;;;;;;;2.39;94.58;100496.03;4934921;29;20067;-68
2021/12/19 00:59:51;;;;;;;7.68;4.47;;;;;;;2.23;94.06;100490.28;4935187;29;20061;-68
2021/12/19 08:01:57;;;;;;;1.85;1.75;;;;;;;1.28;100.00;100276.66;5233463;23;20426;-70
2021/12/19 08:04:22;;;;;;;2.50;2.30;;;;;;;1.24;100.00;100262.00;4955442;29;20097;-70
2021/12/19 08:06:47;;;;;;;3.58;3.28;;;;;;;1.20;100.00;100272.88;4965359;28;20022;-70
2021/12/19 08:09:22;;;;;;;4.65;3.28;;;;;;;1.31;100.00;100254.63;4966415;28;20034;-69
2021/12/19 08:11:48;;;;;;;1.45;1.45;;;;;;;1.28;100.00;100256.25;4974731;28;20031;-69
2021/12/19 08:14:15;;;;;;;2.63;2.45;;;;;;;1.32;100.00;100257.25;5014833;23;20041;-69
2021/12/19 08:16:42;;;;;;;2.53;2.38;;;;;;;1.35;100.00;100259.91;4954008;28;20400;-69
2021/12/19 08:19:08;;;;;;;2.20;1.98;;;;;;;1.46;100.00;100251.03;4955150;29;20027;-69
2021/12/19 08:21:34;;;;;;;3.03;2.25;;;;;;;1.37;100.00;100249.78;4954989;29;20395;-69
2021/12/19 08:24:02;;;;;;;1.90;1.80;;;;;;;1.48;100.00;100259.63;4955201;29;20051;-69
2021/12/19 08:26:28;;;;;;;2.90;2.65;;;;;;;1.36;100.00;100264.25;4954668;28;20444;-69
2021/12/19 08:28:54;;;;;;;4.25;2.92;;;;;;;1.44;100.00;100267.09;4955076;29;20060;-69
2021/12/19 08:31:20;;;;;;;1.35;1.30;;;;;;;1.45;100.00;100261.19;4954928;28;20030;-70
2021/12/19 08:33:46;;;;;;;2.20;2.08;;;;;;;1.54;100.00;100253.91;4954851;29;20555;-69
2021/12/19 08:36:11;;;;;;;1.50;1.50;;;;;;;1.72;100.00;100249.56;4949243;29;20028;-69
2021/12/19 08:38:37;;;;;;;1.55;1.45;;;;;;;2.00;99.54;100255.81;4965892;28;20045;-69
2021/12/19 08:41:02;;;;;;;2.97;2.78;;;;;;;2.05;98.31;100250.06;4974007;28;20040;-69
2021/12/19 08:43:28;;;;;;;1.35;1.35;;;;;;;2.01;97.73;100243.06;4974011;28;20027;-69
2021/12/19 08:45:53;;;;;;;3.60;3.25;;;;;;;1.90;98.42;100235.81;4973697;28;20106;-69
2021/12/19 08:48:19;;;;;;;1.88;1.80;;;;;;;1.91;98.61;100240.97;4973845;28;20027;-69
2021/12/19 08:50:45;;;;;;;5.25;1.85;;;;;;;1.89;98.33;100242.59;4973854;28;20027;-69
2021/12/19 08:53:11;;;;;;;1.13;1.13;;;;;;;1.87;98.05;100248.44;4973754;28;20059;-69
2021/12/19 08:55:37;;;;;;;2.50;2.35;;;;;;;1.79;98.96;100246.47;4973587;28;20090;-69
2021/12/19 08:58:02;;;;;;;1.52;1.52;;;;;;;1.83;98.75;100244.00;4973626;28;20039;-69
2021/12/19 09:00:28;;;;;;;1.85;1.75;;;;;;;1.73;98.92;100243.63;4973704;28;20034;-69
2021/12/19 09:02:55;;;;;;;2.15;1.95;;;;;;;1.92;99.43;100239.28;4973559;28;20033;-69
2021/12/19 09:05:22;;;;;;;1.38;1.05;;;;;;;1.91;99.22;100240.09;4973752;28;20086;-69
2021/12/19 09:07:50;;;;;;;1.63;1.52;;;;;;;1.90;99.26;100233.25;4957549;28;20023;-69
2021/12/19 09:10:16;;;;;;;0.88;0.88;;;;;;;1.89;98.38;100246.84;4970802;28;20023;-69
2021/12/19 09:12:41;;;;;;;1.55;1.27;;;;;;;1.91;98.32;100245.22;4972830;28;20022;-69
2021/12/19 09:15:07;;;;;;;1.38;1.38;;;;;;;1.89;98.34;100241.72;4973121;28;20407;-69
2021/12/19 09:17:32;;;;;;;2.42;1.90;;;;;;;2.03;97.28;100245.69;4973145;28;20031;-69
2021/12/19 09:19:58;;;;;;;1.13;1.13;;;;;;;1.80;97.19;100245.66;4973500;28;20033;-69
2021/12/19 09:22:23;;;;;;;1.67;1.67;;;;;;;1.78;98.18;100243.81;4973431;28;20027;-69
2021/12/19 09:24:49;;;;;;;0.90;0.90;;;;;;;1.88;100.00;100245.06;4973332;28;20169;-69
2021/12/19 09:27:14;;;;;;;1.05;1.05;;;;;;;1.89;97.81;100246.84;4973132;28;20038;-69
2021/12/19 09:29:40;;;;;;;2.47;2.28;;;;;;;1.87;98.10;100233.13;4973736;28;20023;-69
2021/12/19 09:32:06;;;;;;;0.75;0.75;;;;;;;1.88;98.45;100230.59;4973201;28;20027;-69
2021/12/19 09:34:32;;;;;;;1.02;1.02;;;;;;;1.82;98.25;100230.38;4973037;28;20027;-69
2021/12/19 09:36:58;;;;;;;3.17;2.58;;;;;;;1.91;98.69;100222.22;4962062;28;20039;-69
2021/12/19 09:39:24;;;;;;;1.98;1.88;;;;;;;2.09;97.21;100228.06;4964952;28;20030;-69
2021/12/19 09:41:59;;;;;;;1.90;1.30;;;;;;;2.04;97.05;100227.00;4973534;28;20102;-69
2021/12/19 09:44:25;;;;;;;1.65;1.55;;;;;;;2.02;97.43;100220.94;4972985;28;20046;-69
2021/12/19 09:46:51;;;;;;;1.65;1.55;;;;;;;2.07;97.10;100216.88;4972818;28;20468;-69
2021/12/19 09:49:20;;;;;;;1.77;1.67;;;;;;;2.05;97.20;100215.97;4973089;28;20027;-69
2021/12/19 09:51:48;;;;;;;1.13;1.13;;;;;;;2.13;97.34;100212.03;4973004;28;20027;-69
2021/12/19 09:54:14;;;;;;;1.00;1.00;;;;;;;2.06;96.07;100216.00;4972902;28;20031;-69
2021/12/19 09:56:41;;;;;;;1.58;1.48;;;;;;;2.16;96.71;100214.69;4972869;28;20035;-69
2021/12/19 09:59:12;;;;;;;1.20;1.17;;;;;;;2.23;95.88;100203.88;4972926;28;20027;-70
2021/12/19 10:01:39;;;;;;;2.60;2.05;;;;;;;2.29;95.12;100203.25;4972854;28;20062;-69
2021/12/19 10:04:24;;;;;;;2.65;2.42;;;;;;;2.24;95.11;100205.63;4972940;28;20058;-69
2021/12/19 10:07:11;;;;;;;1.02;1.02;;;;;;;2.21;95.41;100200.38;4961674;28;20050;-69
2021/12/19 10:09:59;;;;;;;5.30;2.70;;;;;;;2.42;95.08;100191.78;4964711;28;20027;-69
2021/12/19 10:15:11;;;;;;;0.85;0.85;;;;;;;2.15;95.16;100195.03;4972756;28;20041;-69
2021/12/19 10:17:37;;;;;;;1.63;1.52;;;;;;;2.16;94.53;100181.44;4973112;28;20074;-69
2021/12/19 10:20:06;;;;;;;2.78;1.67;;;;;;;2.17;95.13;100175.50;4972772;28;20030;-69
2021/12/19 10:22:38;;;;;;;2.60;1.65;;;;;;;2.44;96.78;100175.69;4972804;28;20476;-69
2021/12/19 10:25:30;;;;;;;0.93;0.93;;;;;;;2.39;94.79;100173.78;4974577;28;20496;-69
2021/12/19 10:28:02;;;;;;;1.55;1.45;;;;;;;2.62;95.31;100161.84;4976475;28;20030;-69
2021/12/19 10:30:30;;;;;;;0.73;0.73;;;;;;;2.82;93.61;100161.72;4976265;28;20062;-69
2021/12/19 10:32:59;;;;;;;1.38;1.27;;;;;;;2.92;94.29;100156.94;4976483;28;20031;-69
2021/12/19 10:35:32;;;;;;;1.00;1.00;;;;;;;2.99;93.59;100158.88;4976144;28;20050;-69
2021/12/19 10:37:59;;;;;;;1.13;1.13;;;;;;;2.90;93.09;100148.31;4959734;28;20267;-69
2021/12/19 10:40:25;;;;;;;1.40;1.10;;;;;;;2.87;94.34;100148.22;4974515;28;20027;-70
2021/12/19 10:42:58;;;;;;;1.67;1.58;;;;;;;2.83;92.14;100147.22;4976184;28;20118;-69
2021/12/19 10:45:32;;;;;;;1.70;1.60;;;;;;;2.86;93.52;100136.25;4976297;28;20026;-69
2021/12/19 10:48:20;;;;;;;0.70;0.70;;;;;;;2.75;93.22;100134.16;4976147;28;20053;-69
2021/12/19 10:50:47;;;;;;;1.02;0.98;;;;;;;2.83;92.83;100121.63;4975899;28;20151;-69
2021/12/19 10:53:15;;;;;;;1.42;1.27;;;;;;;2.60;92.19;100122.50;4976067;28;20369;-69
2021/12/19 10:55:41;;;;;;;1.10;1.08;;;;;;;2.58;93.38;100119.91;4975756;28;20058;-69
2021/12/19 10:58:31;;;;;;;1.25;1.25;;;;;;;2.41;93.43;100110.75;4976000;28;20503;-69
2021/12/19 11:01:04;;;;;;;;;;;;;;;2.46;94.13;100110.09;4976476;28;20022;-69
2021/12/19 11:03:46;;;;;;;1.55;1.50;;;;;;;2.35;93.59;100100.31;4976238;28;19917;-69
2021/12/19 11:06:38;;;;;;;0.60;0.60;;;;;;;2.31;93.51;100095.06;4964665;28;20024;-69
2021/12/19 11:09:15;;;;;;;0.60;0.60;;;;;;;2.50;93.97;100091.50;4967790;28;20023;-69
2021/12/19 11:11:43;;;;;;;1.25;1.25;;;;;;;2.56;93.37;100085.72;4975552;28;20034;-69
2021/12/19 11:14:11;;;;;;;3.13;1.58;;;;;;;2.73;94.54;100084.63;4975647;28;20070;-69
2021/12/19 11:16:37;;;;;;;0.77;0.77;;;;;;;2.93;92.77;100087.00;4975211;28;20030;-70
2021/12/19 11:19:03;;;;;;;0.70;0.70;;;;;;;2.71;91.58;100086.28;4975885;28;20510;-69
2021/12/19 11:21:33;;;;;;;1.00;1.00;;;;;;;2.58;92.46;100078.97;4975631;28;20361;-69
2021/12/19 11:24:00;;;;;;;1.40;1.40;;;;;;;2.49;92.96;100073.53;4975616;28;20023;-69
2021/12/19 11:26:26;;;;;;;3.45;2.92;;;;;;;2.56;93.16;100070.38;4975658;28;20022;-69
2021/12/19 11:28:55;;;;;;;1.33;1.33;;;;;;;2.37;92.86;100055.19;4975281;28;20484;-69
2021/12/19 11:31:20;;;;;;;0.98;0.98;;;;;;;2.28;92.95;100064.28;4975431;28;20445;-69
2021/12/19 11:34:03;;;;;;;0.70;0.70;;;;;;;2.42;93.64;100056.22;4975388;28;20030;-69
2021/12/19 11:36:35;;;;;;;0.60;0.60;;;;;;;2.49;92.69;100058.19;4963231;28;20028;-69
2021/12/19 11:39:03;;;;;;;1.92;1.10;;;;;;;2.49;93.22;100051.38;4950220;28;20369;-70
2021/12/19 11:41:29;;;;;;;0.68;0.68;;;;;;;2.46;92.82;100048.72;4975050;28;20396;-69
2021/12/19 11:43:56;;;;;;;0.82;0.82;;;;;;;2.46;92.62;100047.84;4975144;28;20023;-69
2021/12/19 11:46:47;;;;;;;1.27;1.25;;;;;;;2.47;92.70;100044.50;4974993;28;20026;-69
2021/12/19 11:49:20;;;;;;;0.93;0.93;;;;;;;2.48;92.60;100041.97;4966025;28;20039;-69
2021/12/19 11:51:46;;;;;;;1.33;1.33;;;;;;;2.51;93.45;100030.97;4974910;28;20054;-69
2021/12/19 11:54:18;;;;;;;1.30;1.30;;;;;;;2.56;92.29;100027.78;4974972;28;20019;-70
2021/12/19 11:57:09;;;;;;;0.90;0.90;;;;;;;2.61;92.78;100017.69;4957298;28;20368;-69
2021/12/19 11:59:37;;;;;;;1.10;1.10;;;;;;;2.66;91.71;100008.47;4974755;28;20057;-69
2021/12/19 12:02:25;;;;;;;1.02;0.90;;;;;;;2.67;92.35;100011.91;4974737;28;20384;-69
2021/12/19 12:05:12;;;;;;;0.85;0.75;;;;;;;2.76;92.00;100005.41;4974782;28;20026;-69
2021/12/19 12:08:06;;;;;;;1.27;1.20;;;;;;;2.71;91.87;100004.38;4960088;28;20062;-70
2021/12/19 12:10:49;;;;;;;1.23;1.13;;;;;;;2.77;91.33;99999.47;4973619;28;20495;-69
2021/12/19 12:13:37;;;;;;;0.73;0.73;;;;;;;3.02;91.97;99990.00;4974756;28;20034;-69
2021/12/19 12:16:20;;;;;;;1.42;1.05;;;;;;;3.08;90.66;99985.06;4974029;28;20171;-69
2021/12/19 12:18:54;;;;;;;1.35;1.25;;;;;;;2.93;90.78;99974.34;4974284;28;20030;-69
2021/12/19 12:23:59;;;;;;;0.73;0.73;;;;;;;2.89;91.24;99967.41;4974366;28;20022;-69
2021/12/19 12:26:55;;;;;;;0.77;0.77;;;;;;;2.74;91.80;99963.53;4974095;28;20031;-70
2021/12/19 12:29:21;;;;;;;0.75;0.75;;;;;;;2.68;92.41;99968.44;4967412;28;20035;-69
2021/12/19 12:31:47;;;;;;;1.45;1.20;;;;;;;2.74;92.39;99947.31;4974051;28;20044;-69
2021/12/19 12:34:15;;;;;;;1.90;1.80;;;;;;;2.63;91.48;99939.28;4974023;28;20035;-69
2021/12/19 12:36:42;;;;;;;1.00;0.80;;;;;;;2.58;91.73;99940.84;4962782;28;20130;-69
2021/12/19 12:39:16;;;;;;;1.42;1.33;;;;;;;2.49;91.86;99935.41;4965950;28;20034;-69
2021/12/19 12:44:12;;;;;;;0.98;0.98;;;;;;;2.71;92.43;99932.75;4973907;28;20392;-69
2021/12/19 12:46:38;;;;;;;0.70;0.70;;;;;;;2.80;92.42;99927.91;4973743;28;20258;-69
2021/12/19 12:49:06;;;;;;;1.27;1.25;;;;;;;2.66;91.48;99924.06;4973792;28;20476;-69
2021/12/19 12:51:40;;;;;;;1.13;1.10;;;;;;;2.60;92.57;99923.84;4973764;28;20029;-69
2021/12/19 12:54:35;;;;;;;0.65;0.65;;;;;;;2.66;92.92;99924.06;4973798;28;20023;-69
2021/12/19 12:57:07;;;;;;;1.02;1.02;;;;;;;2.94;91.68;99924.91;4966156;28;20105;-69
2021/12/19 12:59:38;;;;;;;1.40;1.40;;;;;;;3.05;90.89;99915.88;4973851;28;20038;-69
2021/12/19 13:02:41;;;;;;;0.75;0.75;;;;;;;3.03;90.53;99909.81;4973625;28;20077;-70
2021/12/19 13:04:59;;;;;;;0.80;0.80;;;;;;;3.09;90.24;99912.56;4972902;28;20035;-70
2021/12/19 13:07:25;;;;;;;0.85;0.85;;;;;;;3.14;90.29;99898.19;4960155;28;20026;-69
2021/12/19 13:09:57;;;;;;;1.45;1.02;;;;;;;2.94;90.28;99891.63;4966828;28;20472;-69
2021/12/19 13:12:27;;;;;;;0.88;0.88;;;;;;;3.00;91.43;99890.13;4973480;28;20026;-69
2021/12/19 13:14:58;;;;;;;0.70;0.70;;;;;;;2.98;90.83;99875.53;4973308;28;20065;-69
2021/12/19 13:17:27;;;;;;;2.22;2.13;;;;;;;2.73;90.74;99885.03;4973192;28;20031;-69
2021/12/19 13:19:53;;;;;;;;;;;;;;;2.77;90.80;99871.50;4973934;28;20074;-69
2021/12/19 13:22:24;;;;;;;0.70;0.70;;;;;;;2.55;91.83;99875.06;4973419;28;19960;-69
2021/12/19 13:24:52;;;;;;;2.92;2.72;;;;;;;2.58;92.48;99874.31;4973368;28;20022;-69
2021/12/19 13:27:21;;;;;;;1.05;1.05;;;;;;;2.87;91.99;99866.69;4973053;28;20077;-69
2021/12/19 13:30:13;;;;;;;0.70;0.70;;;;;;;2.95;90.87;99862.63;4973170;28;20387;-69
2021/12/19 13:32:46;;;;;;;1.40;1.40;;;;;;;2.79;90.17;99864.75;4973283;28;20495;-69
2021/12/19 13:35:14;;;;;;;1.10;1.10;;;;;;;2.76;90.91;99867.22;4973041;28;20031;-69
2021/12/19 13:37:48;;;;;;;0.80;0.80;;;;;;;2.59;90.82;99855.59;4957907;28;20034;-69
2021/12/19 13:40:14;;;;;;;1.23;1.23;;;;;;;2.52;91.96;99863.91;4969501;28;20026;-69
2021/12/19 13:42:44;;;;;;;0.73;0.73;;;;;;;2.55;92.08;99856.31;4973196;28;20027;-70
2021/12/19 13:45:28;;;;;;;;;;;;;;;2.46;91.78;99853.47;4973675;28;20035;-69
2021/12/19 13:47:54;;;;;;;1.85;1.40;;;;;;;2.48;92.05;99851.84;4972952;28;20057;-69
2021/12/19 13:50:20;;;;;;;3.33;1.77;;;;;;;2.76;92.62;99849.31;4973070;28;20022;-69
2021/12/19 13:52:46;;;;;;;2.20;0.88;;;;;;;2.79;91.14;99839.16;4973045;28;20034;-69
2021/12/19 13:55:14;;;;;;;1.10;1.10;;;;;;;2.82;91.31;99844.38;4972838;28;20023;-69
2021/12/19 13:57:40;;;;;;;1.42;1.33;;;;;;;2.90;91.08;99841.16;4972997;28;20031;-69
2021/12/19 14:00:10;;;;;;;1.15;1.15;;;;;;;2.66;91.86;99831.06;4975045;28;20085;-71
2021/12/19 14:02:39;;;;;;;1.88;1.77;;;;;;;2.64;92.23;99833.56;4976965;28;20488;-69
2021/12/19 14:05:29;;;;;;;1.08;1.08;;;;;;;2.69;92.32;99837.13;4976635;28;20039;-69
2021/12/19 14:07:55;;;;;;;1.20;1.20;;;;;;;2.62;91.86;99831.81;4959370;28;20094;-69
2021/12/19 14:10:21;;;;;;;0.85;0.85;;;;;;;2.57;91.91;99836.78;4973996;28;20142;-69
2021/12/19 14:15:28;;;;;;;1.17;1.17;;;;;;;2.62;91.77;99840.34;4976891;28;20541;-73
2021/12/19 14:17:53;;;;;;;1.27;1.27;;;;;;;2.65;92.32;99835.31;4976468;28;20038;-72
2021/12/19 14:20:33;;;;;;;0.88;0.88;;;;;;;2.56;92.65;99827.34;4976620;28;20026;-72
2021/12/19 14:23:20;;;;;;;1.45;1.45;;;;;;;2.42;93.64;99831.16;4976646;28;20026;-72
2021/12/19 14:25:46;;;;;;;1.15;1.15;;;;;;;2.47;92.94;99839.88;4976267;28;20027;-69
2021/12/19 14:28:30;;;;;;;1.02;1.02;;;;;;;2.50;93.03;99829.72;4976429;28;20538;-69
2021/12/19 14:31:07;;;;;;;3.92;2.03;;;;;;;2.58;93.52;99830.84;4976494;28;20031;-69
2021/12/19 14:33:38;;;;;;;2.38;2.17;;;;;;;2.61;93.46;99825.81;4976479;28;20109;-69
2021/12/19 14:36:11;;;;;;;1.65;1.65;;;;;;;2.64;93.91;99825.03;4967295;28;20063;-69
2021/12/19 14:38:38;;;;;;;4.82;2.92;;;;;;;2.76;94.17;99827.97;4967181;28;20050;-71
2021/12/19 14:41:07;;;;;;;1.27;1.27;;;;;;;2.66;94.02;99829.38;4976197;28;20046;-72
2021/12/19 14:43:35;;;;;;;2.33;1.23;;;;;;;2.52;93.68;99830.66;4976363;28;20034;-72
2021/12/19 14:46:02;;;;;;;0.68;0.68;;;;;;;2.45;93.52;99821.03;4975856;28;20018;-69
2021/12/19 14:48:31;;;;;;;1.58;1.48;;;;;;;2.43;93.61;99831.22;4976197;28;20026;-72
2021/12/19 14:51:21;;;;;;;2.63;2.20;;;;;;;2.40;93.63;99832.81;4975965;28;20027;-72
2021/12/19 14:53:47;;;;;;;6.20;1.30;;;;;;;2.28;94.69;99829.06;4976146;28;20023;-72
2021/12/19 14:56:22;;;;;;;2.67;1.60;;;;;;;2.38;95.44;99821.69;4975589;28;20046;-69
2021/12/19 14:58:50;;;;;;;3.20;1.90;;;;;;;2.28;95.72;99823.94;4976413;28;20511;-71
2021/12/19 15:01:24;;;;;;;3.72;2.17;;;;;;;2.29;96.10;99830.78;4975736;28;20031;-72
2021/12/19 15:03:58;;;;;;;3.03;1.92;;;;;;;2.27;95.90;99811.97;4975921;28;20084;-71
2021/12/19 15:06:26;;;;;;;2.72;2.25;;;;;;;2.27;96.10;99806.88;4963611;28;20143;-72
2021/12/19 15:08:54;;;;;;;1.70;1.60;;;;;;;2.25;96.42;99807.63;4966619;28;20019;-72
2021/12/19 15:11:20;;;;;;;2.97;1.98;;;;;;;2.25;96.50;99803.38;4974603;28;20034;-71
2021/12/19 15:13:46;;;;;;;1.60;1.52;;;;;;;2.13;96.77;99797.88;4975601;28;20109;-69
2021/12/19 15:16:13;;;;;;;1.80;1.67;;;;;;;2.17;96.56;99799.69;4975229;28;20110;-71
2021/12/19 15:18:39;;;;;;;3.47;1.65;;;;;;;2.13;97.03;99790.22;4975693;28;20374;-72
2021/12/19 15:21:05;;;;;;;5.47;1.95;;;;;;;2.16;96.77;99795.41;4975525;28;20137;-69
2021/12/19 15:23:31;;;;;;;2.50;2.30;;;;;;;2.21;97.12;99801.53;4975473;28;20531;-72
2021/12/19 15:25:56;;;;;;;1.73;1.65;;;;;;;2.16;96.10;99805.63;4975234;28;20105;-69
2021/12/19 15:28:24;;;;;;;2.42;1.77;;;;;;;2.00;97.34;99808.53;4975884;28;20087;-69
2021/12/19 15:30:54;;;;;;;1.95;1.90;;;;;;;2.15;96.23;99811.56;4975283;28;20499;-72
2021/12/19 15:33:21;;;;;;;1.00;1.00;;;;;;;2.11;97.16;99809.72;4975371;28;20097;-72
2021/12/19 15:35:47;;;;;;;1.50;1.40;;;;;;;2.14;97.17;99807.28;4970830;28;20042;-71
2021/12/19 15:38:14;;;;;;;1.00;1.00;;;;;;;2.17;97.00;99804.81;4959983;28;20027;-72
2021/12/19 15:40:40;;;;;;;0.57;0.57;;;;;;;2.15;97.50;99796.25;4975067;28;20038;-70
2021/12/19 15:43:06;;;;;;;1.77;1.67;;;;;;;1.94;97.86;99793.88;4975033;28;20030;-69
2021/12/19 15:45:32;;;;;;;1.75;1.65;;;;;;;1.84;99.08;99793.50;4975076;28;20480;-71
2021/12/19 15:47:58;;;;;;;1.90;1.80;;;;;;;1.85;99.95;99795.25;4975062;28;20443;-69
2021/12/19 15:50:23;;;;;;;1.58;1.50;;;;;;;1.91;100.00;99792.88;4975151;28;20031;-72
2021/12/19 15:52:49;;;;;;;2.28;2.17;;;;;;;2.04;99.19;99787.38;4975108;28;20049;-72
2021/12/19 15:55:14;;;;;;;1.60;1.15;;;;;;;2.18;98.69;99791.22;4974751;28;20395;-69
2021/12/19 15:57:40;;;;;;;1.52;1.50;;;;;;;1.93;98.58;99788.69;4975173;28;20443;-69
2021/12/19 16:00:08;;;;;;;6.00;1.63;;;;;;;1.82;99.55;99784.91;4974732;28;20029;-69
2021/12/19 16:02:33;;;;;;;2.13;2.03;;;;;;;1.84;100.00;99784.16;4974770;28;20121;-69
2021/12/19 16:04:59;;;;;;;1.25;1.23;;;;;;;1.94;100.00;99785.34;4974807;28;20101;-69
2021/12/19 16:07:24;;;;;;;2.47;2.17;;;;;;;1.88;100.00;99780.00;4961327;28;20022;-69
2021/12/19 16:09:49;;;;;;;1.92;1.83;;;;;;;2.06;100.00;99775.50;4967779;28;20399;-72
2021/12/19 16:12:15;;;;;;;1.67;1.48;;;;;;;2.15;100.00;99780.91;4974641;28;20026;-72
2021/12/19 16:14:42;;;;;;;1.45;1.35;;;;;;;2.03;100.00;99780.50;4974310;28;20038;-72
2021/12/19 16:17:08;;;;;;;2.33;2.17;;;;;;;2.28;100.00;99782.16;4974312;28;20030;-72
2021/12/19 16:19:34;;;;;;;1.40;1.38;;;;;;;2.33;100.00;99790.84;4974482;28;20027;-69
2021/12/19 16:22:01;;;;;;;1.52;1.52;;;;;;;2.19;99.00;99787.84;4974194;28;20515;-71
2021/12/19 16:24:27;;;;;;;1.20;1.20;;;;;;;2.18;99.17;99786.13;4974354;28;20029;-69
2021/12/19 16:26:52;;;;;;;5.35;1.90;;;;;;;2.22;99.95;99787.94;4974122;28;20030;-71
2021/12/19 16:29:18;;;;;;;1.23;1.23;;;;;;;2.17;100.00;99784.34;4974283;28;20027;-72
2021/12/19 16:31:43;;;;;;;3.13;1.63;;;;;;;2.12;100.00;99791.00;4974246;28;20031;-72
2021/12/19 16:34:09;;;;;;;1.25;1.10;;;;;;;2.03;100.00;99796.72;4974229;28;20030;-71
2021/12/19 16:36:36;;;;;;;1.95;1.90;;;;;;;2.18;100.00;99790.38;4961620;28;20481;-69
2021/12/19 16:39:07;;;;;;;2.88;1.95;;;;;;;2.23;99.74;99787.13;4966089;28;20022;-69
2021/12/19 16:41:44;;;;;;;3.55;2.08;;;;;;;2.18;99.55;99786.13;4974082;28;20465;-69
2021/12/19 16:44:10;;;;;;;1.70;1.67;;;;;;;2.16;100.00;99792.84;4973989;28;20181;-72
2021/12/19 16:46:38;;;;;;;1.67;1.58;;;;;;;2.27;100.00;99786.41;4973815;28;20030;-73
2021/12/19 16:49:04;;;;;;;4.00;2.80;;;;;;;2.16;100.00;99777.50;4974090;28;20038;-72
2021/12/19 16:51:30;;;;;;;4.00;1.95;;;;;;;2.01;100.00;99766.81;4973994;28;20034;-75
2021/12/19 16:53:55;;;;;;;2.03;1.92;;;;;;;2.09;100.00;99770.50;4973897;28;20019;-69
2021/12/19 16:56:20;;;;;;;0.95;0.95;;;;;;;1.97;100.00;99770.94;4973406;28;20487;-71
2021/12/19 16:58:46;;;;;;;1.55;1.42;;;;;;;1.95;100.00;99777.72;4973768;28;20026;-72
2021/12/19 17:01:11;;;;;;;3.15;2.95;;;;;;;1.99;100.00;99778.69;4973701;28;20033;-69
2021/12/19 17:03:37;;;;;;;2.15;1.95;;;;;;;1.99;100.00;99773.56;4973902;28;20457;-69
2021/12/19 17:06:02;;;;;;;1.20;1.15;;;;;;;2.03;100.00;99775.38;4965094;28;20043;-72
2021/12/19 17:08:27;;;;;;;2.17;2.08;;;;;;;1.94;100.00;99770.88;4961680;28;20609;-72
2021/12/19 17:10:53;;;;;;;1.48;1.38;;;;;;;2.10;100.00;99761.13;4973609;28;20022;-69
2021/12/19 17:13:37;;;;;;;2.13;2.03;;;;;;;2.11;100.00;99771.38;4973463;28;20026;-71
2021/12/19 17:16:03;;;;;;;5.07;2.33;;;;;;;2.18;100.00;99770.78;4972997;28;20054;-69
2021/12/19 17:18:28;;;;;;;2.70;2.50;;;;;;;2.28;100.00;99767.69;4973402;28;20496;-72
2021/12/19 17:20:54;;;;;;;1.92;1.77;;;;;;;2.17;100.00;99766.47;4973241;28;20050;-73
2021/12/19 17:23:20;;;;;;;4.38;3.53;;;;;;;2.25;100.00;99765.03;4973239;28;20054;-73
2021/12/19 17:25:45;;;;;;;2.75;2.63;;;;;;;2.36;100.00;99772.16;4956112;28;20065;-69
2021/12/19 17:28:11;;;;;;;2.10;2.00;;;;;;;2.61;100.00;99761.88;4929589;29;20060;-69
2021/12/19 17:30:37;;;;;;;6.25;2.30;;;;;;;2.69;99.65;99762.06;4954089;29;20118;-73
2021/12/19 17:33:04;;;;;;;2.70;2.60;;;;;;;2.63;99.05;99754.22;4953942;28;20114;-70
2021/12/19 17:35:30;;;;;;;3.28;2.65;;;;;;;2.54;99.01;99754.81;4953161;28;20049;-72
2021/12/19 17:37:59;;;;;;;4.07;3.38;;;;;;;2.49;99.05;99753.81;4942442;29;20028;-72
2021/12/19 17:40:52;;;;;;;5.95;3.22;;;;;;;2.26;99.86;99758.22;4951944;29;20055;-72
2021/12/19 17:43:14;;;;;;;3.53;2.47;;;;;;;2.47;100.00;99758.03;4953254;29;20038;-73
2021/12/19 17:45:39;;;;;;;8.60;3.90;;;;;;;2.42;99.80;99759.53;4953839;29;20026;-69
2021/12/19 17:48:05;;;;;;;6.57;2.10;;;;;;;2.26;100.00;99759.09;4953641;28;20027;-68
2021/12/19 17:50:33;;;;;;;3.85;3.58;;;;;;;2.33;99.92;99755.03;4953929;29;20031;-68
2021/12/19 17:52:59;;;;;;;3.22;3.03;;;;;;;2.51;100.00;99770.06;4954015;29;20078;-72
2021/12/19 17:55:24;;;;;;;4.10;3.70;;;;;;;2.27;99.55;99765.97;4953620;28;20036;-69
2021/12/19 17:57:49;;;;;;;3.00;2.80;;;;;;;2.25;100.00;99777.81;4936452;29;20024;-68
2021/12/19 18:00:19;;;;;;;3.05;2.85;;;;;;;2.35;99.97;99778.09;4953651;29;20038;-72
2021/12/19 18:02:45;;;;;;;2.60;1.73;;;;;;;2.52;99.97;99776.94;4936506;29;20493;-69
2021/12/19 18:05:14;;;;;;;3.17;2.60;;;;;;;2.61;99.60;99769.53;4953666;29;20027;-69
2021/12/19 18:07:40;;;;;;;1.95;1.85;;;;;;;2.59;99.06;99773.72;4944303;28;20503;-68
2021/12/19 18:10:11;;;;;;;7.43;3.88;;;;;;;2.70;98.54;99762.09;4948688;28;20102;-72
2021/12/19 18:12:37;;;;;;;4.20;3.85;;;;;;;2.72;97.96;99765.59;4953716;29;20480;-68
2021/12/19 18:15:05;;;;;;;8.57;3.80;;;;;;;2.79;98.02;99764.06;4953309;29;20038;-72
2021/12/19 18:17:32;;;;;;;3.30;2.53;;;;;;;2.79;98.38;99764.94;4953588;29;20118;-72
2021/12/19 18:19:58;;;;;;;2.50;2.30;;;;;;;2.69;97.82;99759.50;4946659;29;20024;-68
2021/12/19 18:22:23;;;;;;;5.15;2.85;;;;;;;2.61;98.18;99756.75;4934231;29;20024;-68
2021/12/19 18:24:48;;;;;;;5.13;3.28;;;;;;;2.67;98.39;99756.91;4934254;29;20118;-68
2021/12/19 18:27:14;;;;;;;4.43;2.08;;;;;;;2.37;98.55;99764.56;4934194;29;20086;-69
2021/12/19 18:29:39;;;;;;;3.15;2.88;;;;;;;2.62;99.08;99762.72;4934235;29;20034;-69
2021/12/19 18:32:06;;;;;;;2.22;2.13;;;;;;;2.60;98.77;99749.00;4933929;29;20042;-72
2021/12/19 18:34:37;;;;;;;2.60;2.50;;;;;;;2.61;98.95;99750.75;4933989;29;20060;-68
2021/12/19 18:37:05;;;;;;;10.55;4.03;;;;;;;2.75;98.70;99747.75;4939904;29;20038;-72
2021/12/19 18:39:37;;;;;;;12.52;5.10;;;;;;;2.64;98.25;99751.69;4945364;29;20035;-68
2021/12/19 18:42:13;;;;;;;2.88;2.67;;;;;;;2.54;97.61;99768.47;4945510;29;20385;-72
2021/12/19 18:44:45;;;;;;;5.43;4.65;;;;;;;2.68;98.32;99763.75;4934072;29;20444;-68
2021/12/19 18:49:59;;;;;;;3.72;3.53;;;;;;;2.63;98.56;99749.97;4937843;29;20039;-68
2021/12/19 18:57:46;;;;;;;5.75;2.88;;;;;;;2.37;100.00;99749.22;4937649;29;20039;-68
2021/12/19 19:00:14;;;;;;;9.02;4.50;;;;;;;2.50;99.21;99747.88;4937560;29;20027;-72
2021/12/19 19:02:54;;;;;;;3.25;2.67;;;;;;;2.48;99.03;99749.53;4937406;29;20389;-68
2021/12/19 19:05:22;;;;;;;3.75;3.45;;;;;;;2.54;99.40;99734.34;4937348;29;20039;-71
2021/12/19 19:07:59;;;;;;;4.72;3.70;;;;;;;2.29;99.68;99742.97;4944930;29;20020;-72
2021/12/19 19:10:27;;;;;;;9.07;4.07;;;;;;;2.34;100.00;99746.53;4954075;28;20023;-72
2021/12/19 19:12:54;;;;;;;3.35;3.03;;;;;;;2.27;99.82;99745.50;4950909;29;20106;-68